Terminal Aerodrome Forecast
Issued by NWS

Current Version | Previous Version | Text Only | Print | Product List | Glossary Off
Versions: 1 2 3 4 5 6 7 8 9 10 11 12 13 14 15 16 17 18 19 20 21 22 23 24 25 26 27 28 29 30

000
FTUS41 KILN 021100
TAFLUK
TAF
KLUK 021124Z 0212/0312 VRB04KT 5SM BR VCSH SCT040 OVC060
     FM021400 13005KT 5SM -SHRA BR BKN028 OVC045
     FM022000 10005KT P6SM VCSH BKN028 OVC040
      TEMPO 0220/0224 5SM -SHRA BR
     FM030000 07006KT P6SM VCSH SCT028 OVC050
     FM030300 03008KT P6SM VCSH SCT028 BKN050=

USA.gov is the U.S. government's official web portal to all federal, state and local government web resources and services.